Time;durP1;ratioP1;P1;durP2;ratioP2;P2;SDS_P1;SDS_P2;PMS_P1;PMS_P2;Temp;Humidity;BMP_temperature;BMP_pressure;BME280_temperature;BME280_humidity;BME280_pressure;Samples;Min_cycle;Max_cycle;Signal;HPM_P1;HPM_P2
2022/01/14 00:04:28;;;;;;;6.05;4.60;;;;;;;20.35;nan;101724.91;20413953;28;101587;-67
2022/01/14 00:14:44;;;;;;;6.47;4.80;;;;;;;20.30;nan;101699.72;20415725;28;99302;-67
2022/01/14 00:35:12;;;;;;;6.22;4.72;;;;;;;20.24;nan;101676.38;20417440;28;99771;-67
2022/01/14 00:45:12;;;;;;;6.47;4.72;;;;;;;20.21;nan;101678.31;20405066;28;98578;-66
2022/01/14 00:55:17;;;;;;;5.85;4.38;;;;;;;20.19;nan;101675.78;20404616;28;97838;-67
2022/01/14 01:05:19;;;;;;;6.50;4.40;;;;;;;20.15;nan;101661.94;20408986;28;97823;-67
2022/01/14 01:15:20;;;;;;;5.53;4.28;;;;;;;20.12;nan;101655.97;20399469;28;101852;-67
2022/01/14 01:25:24;;;;;;;6.38;4.20;;;;;;;20.09;nan;101654.38;20407308;28;98039;-67
2022/01/14 01:35:26;;;;;;;6.35;4.22;;;;;;;20.05;nan;101644.94;20406160;28;100091;-67
2022/01/14 01:45:27;;;;;;;6.05;4.35;;;;;;;20.04;nan;101634.50;20401983;28;98453;-67
2022/01/14 01:55:28;;;;;;;5.25;4.25;;;;;;;20.02;nan;101625.84;20404002;28;102501;-67
2022/01/14 02:05:30;;;;;;;4.93;3.60;;;;;;;20.00;nan;101615.41;20403168;28;101551;-66
2022/01/14 02:26:09;;;;;;;5.45;4.22;;;;;;;19.97;nan;101581.41;20407440;28;100274;-66
2022/01/14 02:36:11;;;;;;;5.13;4.03;;;;;;;19.94;nan;101558.72;20370074;28;101343;-65
2022/01/14 02:46:14;;;;;;;4.97;3.67;;;;;;;19.94;nan;101561.38;20342761;28;99831;-66
2022/01/14 02:56:30;;;;;;;5.03;4.10;;;;;;;19.94;nan;101550.00;20392969;28;101768;-67
2022/01/14 03:06:31;;;;;;;4.78;3.55;;;;;;;19.94;nan;101528.97;20392042;28;101612;-66
2022/01/14 03:16:38;;;;;;;4.95;3.80;;;;;;;19.92;nan;101510.66;20397183;28;101563;-66
2022/01/14 03:26:39;;;;;;;5.22;3.53;;;;;;;19.93;nan;101498.38;20399449;28;102026;-66
2022/01/14 03:36:40;;;;;;;4.60;3.67;;;;;;;19.90;nan;101493.28;20397838;28;98300;-66
2022/01/14 03:46:42;;;;;;;4.82;3.78;;;;;;;19.88;nan;101485.47;20401269;28;99849;-66
2022/01/14 03:56:44;;;;;;;4.97;3.67;;;;;;;19.88;nan;101484.63;20406171;28;100817;-66
2022/01/14 04:06:45;;;;;;;4.97;3.72;;;;;;;19.87;nan;101477.66;20407417;28;101466;-67
2022/01/14 04:16:45;;;;;;;4.40;3.63;;;;;;;19.87;nan;101464.53;20405545;28;99692;-66
2022/01/14 04:26:46;;;;;;;4.10;3.10;;;;;;;19.87;nan;101449.59;20413407;28;101192;-66
2022/01/14 04:36:47;;;;;;;4.60;3.58;;;;;;;19.87;nan;101436.44;20423781;28;98965;-66
2022/01/14 04:47:01;;;;;;;3.67;3.00;;;;;;;19.86;nan;101426.03;20401791;28;98028;-66
2022/01/14 04:57:02;;;;;;;3.95;3.10;;;;;;;19.86;nan;101405.00;20371637;28;98922;-66
2022/01/14 05:07:04;;;;;;;4.35;3.42;;;;;;;19.84;nan;101399.84;20388972;28;101135;-68
2022/01/14 05:17:04;;;;;;;4.60;3.15;;;;;;;19.93;nan;101386.19;20389953;28;99676;-68
2022/01/14 05:27:08;;;;;;;10.88;3.13;;;;;;;20.15;nan;101392.84;20384463;28;99582;-67
2022/01/14 05:37:09;;;;;;;9.30;3.10;;;;;;;20.35;nan;101396.09;20388499;28;101742;-67
2022/01/14 05:47:11;;;;;;;6.13;3.00;;;;;;;20.43;nan;101392.13;20350839;28;100833;-68
2022/01/14 05:57:11;;;;;;;9.40;3.13;;;;;;;20.51;nan;101396.91;20336542;28;99596;-66
2022/01/14 06:07:13;;;;;;;6.97;3.35;;;;;;;20.56;nan;101401.91;20355934;28;98510;-66
2022/01/14 06:17:14;;;;;;;15.90;3.70;;;;;;;20.62;nan;101391.88;20348228;28;99029;-68
2022/01/14 06:27:14;;;;;;;13.60;4.30;;;;;;;20.57;nan;101375.50;20360178;28;97961;-67
2022/01/14 06:37:15;;;;;;;14.80;6.00;;;;;;;20.42;nan;101374.63;20357225;28;101784;-65
2022/01/14 06:47:16;;;;;;;12.38;5.35;;;;;;;20.49;nan;101372.47;20391643;28;99621;-67
2022/01/14 06:57:17;;;;;;;12.57;4.53;;;;;;;20.53;nan;101367.88;20415371;28;100463;-67
2022/01/14 07:07:17;;;;;;;14.00;4.97;;;;;;;20.64;nan;101347.03;20401073;28;98835;-68
2022/01/14 07:17:18;;;;;;;9.60;4.55;;;;;;;20.75;nan;101342.03;20356785;28;99196;-67
2022/01/14 07:27:19;;;;;;;9.95;4.35;;;;;;;20.79;nan;101340.06;20380378;28;97753;-67
2022/01/14 07:37:20;;;;;;;8.57;3.97;;;;;;;20.85;nan;101341.44;20370946;28;99396;-68
2022/01/14 07:47:21;;;;;;;11.63;4.20;;;;;;;20.88;nan;101342.09;20387947;28;98959;-68
2022/01/14 07:57:22;;;;;;;9.05;3.67;;;;;;;20.94;nan;101333.00;20389176;28;100469;-69
2022/01/14 08:07:24;;;;;;;5.93;3.20;;;;;;;20.98;nan;101331.03;20396188;28;99843;-68
2022/01/14 08:17:25;;;;;;;8.27;4.32;;;;;;;21.03;nan;101337.72;20386842;28;101460;-69
2022/01/14 08:27:26;;;;;;;7.45;4.68;;;;;;;21.10;nan;101319.72;20388203;28;98427;-68
2022/01/14 08:37:27;;;;;;;8.95;5.70;;;;;;;21.17;nan;101322.84;20369129;28;98471;-68
2022/01/14 08:47:28;;;;;;;9.48;6.50;;;;;;;21.23;nan;101302.22;20390894;28;99239;-68
2022/01/14 08:57:28;;;;;;;13.73;8.48;;;;;;;21.30;nan;101278.97;20415639;28;98643;-69
2022/01/14 09:07:30;;;;;;;13.98;8.00;;;;;;;21.34;nan;101272.56;20406942;28;101165;-68
2022/01/14 09:17:31;;;;;;;15.23;10.18;;;;;;;21.36;nan;101262.78;20385165;28;100947;-68
2022/01/14 09:27:33;;;;;;;15.52;10.77;;;;;;;21.37;nan;101247.81;20423615;28;97538;-69
2022/01/14 09:37:34;;;;;;;17.40;10.77;;;;;;;21.39;nan;101259.94;20388142;28;97615;-68
2022/01/14 09:47:36;;;;;;;19.27;9.82;;;;;;;21.47;nan;101272.63;20368525;28;102416;-66
2022/01/14 09:57:37;;;;;;;12.63;8.97;;;;;;;21.54;nan;101251.97;20337532;28;98930;-68
2022/01/14 10:07:40;;;;;;;14.75;9.65;;;;;;;21.65;nan;101240.75;20340707;28;100346;-68
2022/01/14 10:17:42;;;;;;;14.27;8.40;;;;;;;21.69;nan;101242.25;20410140;28;101260;-67
2022/01/14 10:27:50;;;;;;;13.30;8.50;;;;;;;;;;20413602;28;97371;-68
2022/01/14 10:37:53;;;;;;;12.57;8.30;;;;;;;21.79;nan;101181.84;20408836;28;100907;-67
2022/01/14 10:48:04;;;;;;;11.93;7.43;;;;;;;21.86;nan;101140.94;20362124;28;103986;-68
2022/01/14 10:58:11;;;;;;;9.90;7.15;;;;;;;21.94;nan;101104.34;20408608;28;99233;-68
2022/01/14 11:08:12;;;;;;;8.52;6.57;;;;;;;21.99;nan;101098.75;20403743;28;101265;-67
2022/01/14 11:18:13;;;;;;;9.50;6.85;;;;;;;22.06;nan;101108.75;20409303;28;101926;-67
2022/01/14 11:28:18;;;;;;;8.60;6.13;;;;;;;22.11;nan;101087.34;20402937;28;103301;-67
2022/01/14 11:38:37;;;;;;;8.98;5.82;;;;;;;22.15;nan;101069.50;20396877;28;100443;-67
2022/01/14 11:48:49;;;;;;;13.70;5.53;;;;;;;22.20;nan;101062.09;20409127;28;99446;-68
2022/01/14 11:58:50;;;;;;;6.67;4.63;;;;;;;22.30;nan;101046.47;20354152;28;98408;-69
2022/01/14 12:09:02;;;;;;;7.25;5.07;;;;;;;22.42;nan;101042.13;20366122;28;97793;-68
2022/01/14 12:19:03;;;;;;;;;;;;;;;22.56;nan;101023.50;20403301;28;99587;-67
2022/01/14 12:29:16;;;;;;;10.00;5.97;;;;;;;22.66;nan;101032.41;20348329;28;102963;-66
2022/01/14 12:39:18;;;;;;;12.48;6.30;;;;;;;22.77;nan;101044.00;20411734;28;101992;-66
2022/01/14 12:49:32;;;;;;;7.57;5.20;;;;;;;22.84;nan;101048.69;20410743;28;98546;-67
2022/01/14 12:59:45;;;;;;;12.13;4.97;;;;;;;22.96;nan;101040.81;20392851;28;103156;-68
2022/01/14 13:09:49;;;;;;;9.30;5.30;;;;;;;23.02;nan;101027.16;20395855;28;98505;-67
2022/01/14 13:19:50;;;;;;;8.25;5.25;;;;;;;23.08;nan;101020.56;20410872;28;98200;-64
2022/01/14 13:29:50;;;;;;;22.48;5.30;;;;;;;23.01;nan;101025.50;20406629;28;99455;-64
2022/01/14 13:40:00;;;;;;;21.95;5.13;;;;;;;23.04;nan;101004.09;20412287;28;98129;-65
2022/01/14 13:50:12;;;;;;;13.52;4.15;;;;;;;23.08;nan;101005.56;20410353;28;105809;-65
2022/01/14 14:00:14;;;;;;;12.90;3.50;;;;;;;23.12;nan;101008.81;20394376;28;102306;-66
2022/01/14 14:10:31;;;;;;;18.40;4.60;;;;;;;22.93;nan;101009.38;20391261;28;101977;-65
2022/01/14 14:20:33;;;;;;;24.33;4.13;;;;;;;22.82;nan;101010.16;20412015;28;100786;-68
2022/01/14 14:30:36;;;;;;;11.15;3.70;;;;;;;22.78;nan;101000.81;20404302;28;98902;-68
2022/01/14 14:40:37;;;;;;;17.17;4.35;;;;;;;22.76;nan;100994.78;20403316;28;100347;-67
2022/01/14 14:50:38;;;;;;;7.82;3.53;;;;;;;22.70;nan;100986.38;20406817;28;103069;-66
2022/01/14 15:00:38;;;;;;;9.15;3.35;;;;;;;22.56;nan;101005.03;20424018;28;99590;-66
2022/01/14 15:10:40;;;;;;;14.32;3.80;;;;;;;22.46;nan;100998.72;20420901;28;100425;-66
2022/01/14 15:20:42;;;;;;;8.57;3.70;;;;;;;22.38;nan;100996.66;20398050;28;98227;-67
2022/01/14 15:30:44;;;;;;;11.48;3.72;;;;;;;22.31;nan;100995.38;20374103;28;98557;-67
2022/01/14 15:40:44;;;;;;;12.23;3.80;;;;;;;22.10;nan;100998.63;20397656;28;101574;-67
2022/01/14 15:50:45;;;;;;;8.18;3.28;;;;;;;22.11;nan;100996.84;20419169;28;98638;-67
2022/01/14 16:00:48;;;;;;;7.57;3.15;;;;;;;22.06;nan;100979.53;20404219;28;101481;-67
2022/01/14 16:10:49;;;;;;;7.57;2.95;;;;;;;21.98;nan;100979.22;20421231;28;104166;-66
2022/01/14 16:20:49;;;;;;;11.82;2.78;;;;;;;21.90;nan;100971.88;20432930;28;97931;-67
2022/01/14 16:30:54;;;;;;;6.65;2.75;;;;;;;21.84;nan;100961.78;20437095;28;98022;-67
2022/01/14 16:40:55;;;;;;;7.28;2.78;;;;;;;21.78;nan;100980.66;20400851;28;101527;-65
2022/01/14 16:50:56;;;;;;;16.17;3.22;;;;;;;21.80;nan;100980.53;20364887;28;99200;-67
2022/01/14 17:00:57;;;;;;;8.23;2.50;;;;;;;21.81;nan;100969.06;20363013;28;101699;-64
2022/01/14 17:10:58;;;;;;;6.80;2.67;;;;;;;21.85;nan;100968.72;20361991;28;100219;-64
2022/01/14 17:21:00;;;;;;;8.77;2.67;;;;;;;21.92;nan;100987.59;20365771;28;101882;-64
2022/01/14 17:31:03;;;;;;;9.35;2.60;;;;;;;22.01;nan;100973.75;20409057;28;97333;-64
2022/01/14 17:41:04;;;;;;;;;;;;;;;22.04;nan;100999.88;20391433;28;97598;-63
2022/01/14 17:51:05;;;;;;;9.10;2.85;;;;;;;22.12;nan;101006.41;20344792;28;100054;-63
2022/01/14 18:01:07;;;;;;;20.67;7.13;;;;;;;22.17;nan;101002.50;20382989;28;99966;-63
2022/01/14 18:11:09;;;;;;;34.28;10.52;;;;;;;22.14;nan;101008.00;20384240;28;102700;-63
2022/01/14 18:21:11;;;;;;;31.92;9.32;;;;;;;22.18;nan;101004.19;20364949;28;101959;-64
2022/01/14 18:31:11;;;;;;;26.63;8.25;;;;;;;22.25;nan;101009.03;20370338;28;98213;-64
2022/01/14 18:41:13;;;;;;;33.65;11.70;;;;;;;22.30;nan;101014.81;20373254;28;100058;-64
2022/01/14 18:51:14;;;;;;;27.05;12.40;;;;;;;22.35;nan;100997.69;20416364;28;100241;-64
2022/01/14 19:01:14;;;;;;;73.13;35.92;;;;;;;22.33;nan;100991.69;20410448;28;103415;-65
2022/01/14 19:11:17;;;;;;;76.57;36.93;;;;;;;22.31;nan;100998.03;20414374;28;97582;-64
2022/01/14 19:21:18;;;;;;;65.20;33.28;;;;;;;22.39;nan;101011.53;20413809;28;101972;-65
2022/01/14 19:31:20;;;;;;;63.70;31.40;;;;;;;22.42;nan;101002.56;20437662;28;99177;-65
2022/01/14 19:41:21;;;;;;;55.67;26.53;;;;;;;22.43;nan;101015.63;20426819;28;99598;-66
2022/01/14 19:51:21;;;;;;;57.35;26.70;;;;;;;22.44;nan;101014.69;20421878;28;98678;-66
2022/01/14 20:01:22;;;;;;;45.63;23.33;;;;;;;22.28;nan;101025.47;20430026;28;102965;-64
2022/01/14 20:11:23;;;;;;;40.42;21.45;;;;;;;22.17;nan;101026.25;20425903;28;103577;-64
2022/01/14 20:21:26;;;;;;;37.88;19.23;;;;;;;22.07;nan;101028.69;20436334;28;101467;-65
2022/01/14 20:31:27;;;;;;;38.97;20.23;;;;;;;21.95;nan;101026.06;20429299;28;101903;-65
2022/01/14 20:41:30;;;;;;;37.65;18.20;;;;;;;21.87;nan;101018.72;20434232;28;101175;-65
2022/01/14 20:51:31;;;;;;;36.95;18.38;;;;;;;21.80;nan;101020.94;20416524;28;102928;-64
2022/01/14 21:01:33;;;;;;;33.88;17.48;;;;;;;21.71;nan;101032.13;20414550;28;98304;-65
2022/01/14 21:11:34;;;;;;;30.00;16.08;;;;;;;21.63;nan;101043.22;20417764;28;98807;-65
2022/01/14 21:21:36;;;;;;;29.23;16.35;;;;;;;21.56;nan;101079.66;20413474;28;98867;-65
2022/01/14 21:31:37;;;;;;;26.47;15.37;;;;;;;21.50;nan;101079.22;20404952;28;99404;-65
2022/01/14 21:41:37;;;;;;;27.83;15.52;;;;;;;21.42;nan;101069.19;20379676;28;98209;-65
2022/01/14 21:51:38;;;;;;;24.60;13.88;;;;;;;21.34;nan;101071.50;20350328;28;98921;-64
2022/01/14 22:01:41;;;;;;;21.13;13.77;;;;;;;21.26;nan;101083.41;20375762;28;99357;-64
2022/01/14 22:11:42;;;;;;;23.27;13.23;;;;;;;21.20;nan;101110.16;20399461;28;103935;-64
2022/01/14 22:21:42;;;;;;;21.48;13.05;;;;;;;21.13;nan;101093.06;20410287;28;101450;-64
2022/01/14 22:31:43;;;;;;;19.80;11.95;;;;;;;21.08;nan;101103.91;20400953;28;101414;-64
2022/01/14 22:41:45;;;;;;;19.90;12.05;;;;;;;21.03;nan;101105.13;20429546;28;98607;-64
2022/01/14 22:51:45;;;;;;;17.87;11.43;;;;;;;20.97;nan;101105.53;20403001;28;101444;-64
2022/01/14 23:01:46;;;;;;;16.48;10.43;;;;;;;20.91;nan;101098.88;20411110;28;98235;-65
2022/01/14 23:11:46;;;;;;;17.23;10.30;;;;;;;20.89;nan;101106.88;20412969;28;101865;-64
2022/01/14 23:21:47;;;;;;;15.07;9.52;;;;;;;20.84;nan;101118.66;20407767;28;99470;-65
2022/01/14 23:31:49;;;;;;;14.80;9.45;;;;;;;20.79;nan;101127.69;20412134;28;97796;-65
2022/01/14 23:41:51;;;;;;;12.88;8.88;;;;;;;20.77;nan;101112.94;20406922;28;101496;-64
2022/01/14 23:51:55;;;;;;;10.53;7.60;;;;;;;20.72;nan;101120.28;20405438;28;100034;-65
